sensor_id;sensor_type;location;lat;lon;timestamp;temperature;humidity
46816;DHT22;32787;53.316;8.670;2023-02-28T00:01:20;2.90;84.60
46816;DHT22;32787;53.316;8.670;2023-02-28T00:03:46;2.80;85.10
46816;DHT22;32787;53.316;8.670;2023-02-28T00:06:12;2.80;85.30
46816;DHT22;32787;53.316;8.670;2023-02-28T00:08:38;2.80;85.50
46816;DHT22;32787;53.316;8.670;2023-02-28T00:11:06;2.80;85.40
46816;DHT22;32787;53.316;8.670;2023-02-28T00:13:34;2.90;85.50
46816;DHT22;32787;53.316;8.670;2023-02-28T00:16:05;2.90;85.10
46816;DHT22;32787;53.316;8.670;2023-02-28T00:18:31;2.80;85.10
46816;DHT22;32787;53.316;8.670;2023-02-28T00:20:57;2.80;85.50
46816;DHT22;32787;53.316;8.670;2023-02-28T00:23:23;2.70;85.70
46816;DHT22;32787;53.316;8.670;2023-02-28T00:25:50;2.70;86.10
46816;DHT22;32787;53.316;8.670;2023-02-28T00:28:15;2.80;86.00
46816;DHT22;32787;53.316;8.670;2023-02-28T00:30:41;2.80;86.00
46816;DHT22;32787;53.316;8.670;2023-02-28T00:33:06;3.00;85.70
46816;DHT22;32787;53.316;8.670;2023-02-28T00:35:32;2.90;85.80
46816;DHT22;32787;53.316;8.670;2023-02-28T00:37:58;2.80;86.10
46816;DHT22;32787;53.316;8.670;2023-02-28T00:40:23;2.70;86.10
46816;DHT22;32787;53.316;8.670;2023-02-28T00:42:49;2.60;86.20
46816;DHT22;32787;53.316;8.670;2023-02-28T00:45:14;2.70;86.20
46816;DHT22;32787;53.316;8.670;2023-02-28T00:47:40;2.60;86.20
46816;DHT22;32787;53.316;8.670;2023-02-28T00:50:06;2.60;86.40
46816;DHT22;32787;53.316;8.670;2023-02-28T00:52:32;2.70;86.80
46816;DHT22;32787;53.316;8.670;2023-02-28T00:54:58;2.70;87.00
46816;DHT22;32787;53.316;8.670;2023-02-28T00:57:23;2.60;87.70
46816;DHT22;32787;53.316;8.670;2023-02-28T00:59:49;2.80;87.90
46816;DHT22;32787;53.316;8.670;2023-02-28T01:02:15;2.80;87.60
46816;DHT22;32787;53.316;8.670;2023-02-28T01:04:40;2.80;87.70
46816;DHT22;32787;53.316;8.670;2023-02-28T01:07:06;2.80;87.70
46816;DHT22;32787;53.316;8.670;2023-02-28T01:09:32;2.70;88.00
46816;DHT22;32787;53.316;8.670;2023-02-28T01:11:57;2.70;88.20
46816;DHT22;32787;53.316;8.670;2023-02-28T01:14:23;2.70;88.20
46816;DHT22;32787;53.316;8.670;2023-02-28T01:16:49;2.60;88.20
46816;DHT22;32787;53.316;8.670;2023-02-28T01:19:14;2.60;88.40
46816;DHT22;32787;53.316;8.670;2023-02-28T01:21:40;2.50;88.50
46816;DHT22;32787;53.316;8.670;2023-02-28T01:24:06;2.50;88.70
46816;DHT22;32787;53.316;8.670;2023-02-28T01:26:32;2.50;88.70
46816;DHT22;32787;53.316;8.670;2023-02-28T01:28:58;2.40;88.70
46816;DHT22;32787;53.316;8.670;2023-02-28T01:31:24;2.40;88.90
46816;DHT22;32787;53.316;8.670;2023-02-28T01:33:50;2.30;88.90
46816;DHT22;32787;53.316;8.670;2023-02-28T01:36:18;2.40;88.90
46816;DHT22;32787;53.316;8.670;2023-02-28T01:38:45;2.50;88.90
46816;DHT22;32787;53.316;8.670;2023-02-28T01:41:17;2.60;88.50
46816;DHT22;32787;53.316;8.670;2023-02-28T01:46:09;2.40;88.30
46816;DHT22;32787;53.316;8.670;2023-02-28T01:48:38;2.40;88.30
46816;DHT22;32787;53.316;8.670;2023-02-28T01:51:10;2.40;88.40
46816;DHT22;32787;53.316;8.670;2023-02-28T01:53:41;2.80;88.40
46816;DHT22;32787;53.316;8.670;2023-02-28T01:56:12;2.80;87.40
46816;DHT22;32787;53.316;8.670;2023-02-28T01:58:39;2.60;87.60
46816;DHT22;32787;53.316;8.670;2023-02-28T02:01:05;2.50;87.90
46816;DHT22;32787;53.316;8.670;2023-02-28T02:03:31;2.50;88.10
46816;DHT22;32787;53.316;8.670;2023-02-28T02:05:57;2.60;88.00
46816;DHT22;32787;53.316;8.670;2023-02-28T02:08:24;2.70;87.90
46816;DHT22;32787;53.316;8.670;2023-02-28T02:13:42;2.40;87.80
46816;DHT22;32787;53.316;8.670;2023-02-28T02:16:34;2.40;88.00
46816;DHT22;32787;53.316;8.670;2023-02-28T02:27:37;2.20;88.40
46816;DHT22;32787;53.316;8.670;2023-02-28T02:36:00;2.40;87.90
46816;DHT22;32787;53.316;8.670;2023-02-28T02:46:46;2.40;88.10
46816;DHT22;32787;53.316;8.670;2023-02-28T02:49:21;2.20;87.90
46816;DHT22;32787;53.316;8.670;2023-02-28T02:51:48;2.10;88.10
46816;DHT22;32787;53.316;8.670;2023-02-28T02:54:22;2.00;88.20
46816;DHT22;32787;53.316;8.670;2023-02-28T02:56:53;2.20;88.50
46816;DHT22;32787;53.316;8.670;2023-02-28T02:59:21;2.20;88.30
46816;DHT22;32787;53.316;8.670;2023-02-28T03:01:52;2.10;88.50
46816;DHT22;32787;53.316;8.670;2023-02-28T03:04:21;2.20;88.30
46816;DHT22;32787;53.316;8.670;2023-02-28T03:06:47;1.90;88.50
46816;DHT22;32787;53.316;8.670;2023-02-28T03:09:13;1.80;88.90
46816;DHT22;32787;53.316;8.670;2023-02-28T03:11:40;1.70;89.30
46816;DHT22;32787;53.316;8.670;2023-02-28T03:16:59;1.80;89.60
46816;DHT22;32787;53.316;8.670;2023-02-28T03:19:47;1.70;89.30
46816;DHT22;32787;53.316;8.670;2023-02-28T03:25:44;1.60;89.90
46816;DHT22;32787;53.316;8.670;2023-02-28T03:28:19;1.60;89.90
46816;DHT22;32787;53.316;8.670;2023-02-28T03:30:52;1.60;90.00
46816;DHT22;32787;53.316;8.670;2023-02-28T03:33:58;1.70;90.00
46816;DHT22;32787;53.316;8.670;2023-02-28T03:36:24;1.90;89.90
46816;DHT22;32787;53.316;8.670;2023-02-28T03:39:04;2.00;89.60
46816;DHT22;32787;53.316;8.670;2023-02-28T03:41:40;2.00;89.40
46816;DHT22;32787;53.316;8.670;2023-02-28T03:44:28;1.90;89.40
46816;DHT22;32787;53.316;8.670;2023-02-28T03:47:11;1.90;89.50
46816;DHT22;32787;53.316;8.670;2023-02-28T03:53:04;2.20;89.80
46816;DHT22;32787;53.316;8.670;2023-02-28T03:55:47;2.10;89.00
46816;DHT22;32787;53.316;8.670;2023-02-28T03:58:41;2.00;89.20
46816;DHT22;32787;53.316;8.670;2023-02-28T04:01:36;2.00;89.30
46816;DHT22;32787;53.316;8.670;2023-02-28T04:04:03;2.10;89.70
46816;DHT22;32787;53.316;8.670;2023-02-28T04:06:31;2.40;89.00
46816;DHT22;32787;53.316;8.670;2023-02-28T04:08:57;2.00;88.70
46816;DHT22;32787;53.316;8.670;2023-02-28T04:11:40;1.90;89.10
46816;DHT22;32787;53.316;8.670;2023-02-28T04:14:08;1.80;89.40
46816;DHT22;32787;53.316;8.670;2023-02-28T04:16:37;1.80;89.50
46816;DHT22;32787;53.316;8.670;2023-02-28T04:19:04;1.90;89.60
46816;DHT22;32787;53.316;8.670;2023-02-28T04:21:42;1.90;89.70
46816;DHT22;32787;53.316;8.670;2023-02-28T04:24:13;2.00;89.50
46816;DHT22;32787;53.316;8.670;2023-02-28T04:26:41;2.10;89.40
46816;DHT22;32787;53.316;8.670;2023-02-28T04:29:09;2.30;88.90
46816;DHT22;32787;53.316;8.670;2023-02-28T04:31:35;2.20;88.60
46816;DHT22;32787;53.316;8.670;2023-02-28T04:34:01;2.00;88.80
46816;DHT22;32787;53.316;8.670;2023-02-28T04:36:27;1.80;89.30
46816;DHT22;32787;53.316;8.670;2023-02-28T04:38:53;1.80;89.60
46816;DHT22;32787;53.316;8.670;2023-02-28T04:41:19;1.70;89.90
46816;DHT22;32787;53.316;8.670;2023-02-28T04:43:45;1.90;89.70
46816;DHT22;32787;53.316;8.670;2023-02-28T04:46:11;1.90;89.80
46816;DHT22;32787;53.316;8.670;2023-02-28T04:48:39;2.00;89.80
46816;DHT22;32787;53.316;8.670;2023-02-28T04:51:07;2.10;89.50
46816;DHT22;32787;53.316;8.670;2023-02-28T04:53:33;1.90;89.50
46816;DHT22;32787;53.316;8.670;2023-02-28T04:56:00;1.90;89.40
46816;DHT22;32787;53.316;8.670;2023-02-28T04:58:26;1.90;89.50
46816;DHT22;32787;53.316;8.670;2023-02-28T05:00:52;1.80;89.70
46816;DHT22;32787;53.316;8.670;2023-02-28T05:03:18;1.80;89.90
46816;DHT22;32787;53.316;8.670;2023-02-28T05:05:46;1.90;89.80
46816;DHT22;32787;53.316;8.670;2023-02-28T05:08:11;1.90;89.90
46816;DHT22;32787;53.316;8.670;2023-02-28T05:10:37;1.80;89.80
46816;DHT22;32787;53.316;8.670;2023-02-28T05:13:03;1.70;89.90
46816;DHT22;32787;53.316;8.670;2023-02-28T05:15:28;1.90;89.80
46816;DHT22;32787;53.316;8.670;2023-02-28T05:17:54;1.80;89.50
46816;DHT22;32787;53.316;8.670;2023-02-28T05:20:19;1.90;89.70
46816;DHT22;32787;53.316;8.670;2023-02-28T05:22:46;1.90;89.70
46816;DHT22;32787;53.316;8.670;2023-02-28T05:25:15;1.90;89.30
46816;DHT22;32787;53.316;8.670;2023-02-28T05:27:42;1.80;89.40
46816;DHT22;32787;53.316;8.670;2023-02-28T05:30:08;1.70;89.50
46816;DHT22;32787;53.316;8.670;2023-02-28T05:32:37;1.70;89.60
46816;DHT22;32787;53.316;8.670;2023-02-28T05:35:03;1.60;89.40
46816;DHT22;32787;53.316;8.670;2023-02-28T05:37:29;1.40;89.60
46816;DHT22;32787;53.316;8.670;2023-02-28T05:39:54;1.40;89.80
46816;DHT22;32787;53.316;8.670;2023-02-28T05:42:20;1.50;89.80
46816;DHT22;32787;53.316;8.670;2023-02-28T05:44:46;1.30;89.80
46816;DHT22;32787;53.316;8.670;2023-02-28T05:47:11;1.20;89.90
46816;DHT22;32787;53.316;8.670;2023-02-28T05:49:41;1.20;90.10
46816;DHT22;32787;53.316;8.670;2023-02-28T05:52:06;1.10;90.10
46816;DHT22;32787;53.316;8.670;2023-02-28T05:54:32;1.00;90.20
46816;DHT22;32787;53.316;8.670;2023-02-28T05:56:58;0.90;90.30
46816;DHT22;32787;53.316;8.670;2023-02-28T05:59:23;0.90;90.40
46816;DHT22;32787;53.316;8.670;2023-02-28T06:01:49;1.00;90.30
46816;DHT22;32787;53.316;8.670;2023-02-28T06:04:17;1.00;90.30
46816;DHT22;32787;53.316;8.670;2023-02-28T06:06:45;1.00;90.20
46816;DHT22;32787;53.316;8.670;2023-02-28T06:09:11;0.90;90.20
46816;DHT22;32787;53.316;8.670;2023-02-28T06:11:37;0.90;90.30
46816;DHT22;32787;53.316;8.670;2023-02-28T06:14:04;0.90;90.30
46816;DHT22;32787;53.316;8.670;2023-02-28T06:16:32;0.90;90.30
46816;DHT22;32787;53.316;8.670;2023-02-28T06:18:59;0.90;90.40
46816;DHT22;32787;53.316;8.670;2023-02-28T06:21:25;0.80;90.40
46816;DHT22;32787;53.316;8.670;2023-02-28T06:23:52;0.70;90.40
46816;DHT22;32787;53.316;8.670;2023-02-28T06:26:19;0.60;90.30
46816;DHT22;32787;53.316;8.670;2023-02-28T06:28:45;0.50;90.40
46816;DHT22;32787;53.316;8.670;2023-02-28T06:31:13;0.20;90.50
46816;DHT22;32787;53.316;8.670;2023-02-28T06:33:40;0.10;90.60
46816;DHT22;32787;53.316;8.670;2023-02-28T06:36:06;0.00;90.70
46816;DHT22;32787;53.316;8.670;2023-02-28T06:38:33;0.00;90.70
46816;DHT22;32787;53.316;8.670;2023-02-28T06:40:59;0.00;91.00
46816;DHT22;32787;53.316;8.670;2023-02-28T06:43:27;0.00;90.90
46816;DHT22;32787;53.316;8.670;2023-02-28T06:45:58;0.00;90.90
46816;DHT22;32787;53.316;8.670;2023-02-28T06:48:26;0.00;90.90
46816;DHT22;32787;53.316;8.670;2023-02-28T06:50:52;0.00;90.90
46816;DHT22;32787;53.316;8.670;2023-02-28T06:53:17;-3276.60;91.00
46816;DHT22;32787;53.316;8.670;2023-02-28T06:55:43;-3276.60;91.00
46816;DHT22;32787;53.316;8.670;2023-02-28T06:58:08;-3276.60;91.30
46816;DHT22;32787;53.316;8.670;2023-02-28T07:00:42;-3276.60;91.50
46816;DHT22;32787;53.316;8.670;2023-02-28T07:03:07;0.00;91.80
46816;DHT22;32787;53.316;8.670;2023-02-28T07:05:35;0.00;91.70
46816;DHT22;32787;53.316;8.670;2023-02-28T07:08:01;0.00;91.50
46816;DHT22;32787;53.316;8.670;2023-02-28T07:10:27;0.00;91.30
46816;DHT22;32787;53.316;8.670;2023-02-28T07:12:52;0.00;91.40
46816;DHT22;32787;53.316;8.670;2023-02-28T07:15:18;0.00;91.50
46816;DHT22;32787;53.316;8.670;2023-02-28T07:17:43;0.10;91.30
46816;DHT22;32787;53.316;8.670;2023-02-28T07:20:10;0.20;91.30
46816;DHT22;32787;53.316;8.670;2023-02-28T07:22:35;0.60;91.40
46816;DHT22;32787;53.316;8.670;2023-02-28T07:25:01;1.00;90.80
46816;DHT22;32787;53.316;8.670;2023-02-28T07:27:27;1.30;89.60
46816;DHT22;32787;53.316;8.670;2023-02-28T07:29:53;1.40;89.10
46816;DHT22;32787;53.316;8.670;2023-02-28T07:32:20;1.60;89.10
46816;DHT22;32787;53.316;8.670;2023-02-28T07:34:45;2.20;88.60
46816;DHT22;32787;53.316;8.670;2023-02-28T07:37:11;3.00;87.40
46816;DHT22;32787;53.316;8.670;2023-02-28T07:39:37;3.50;84.50
46816;DHT22;32787;53.316;8.670;2023-02-28T07:42:06;4.00;81.50
46816;DHT22;32787;53.316;8.670;2023-02-28T07:44:34;4.40;78.10
46816;DHT22;32787;53.316;8.670;2023-02-28T07:47:00;4.70;77.80
46816;DHT22;32787;53.316;8.670;2023-02-28T07:49:26;5.00;75.70
46816;DHT22;32787;53.316;8.670;2023-02-28T07:51:52;5.50;74.30
46816;DHT22;32787;53.316;8.670;2023-02-28T07:54:17;5.90;73.50
46816;DHT22;32787;53.316;8.670;2023-02-28T07:56:43;6.50;70.00
46816;DHT22;32787;53.316;8.670;2023-02-28T07:59:08;6.60;69.20
46816;DHT22;32787;53.316;8.670;2023-02-28T08:01:34;5.80;70.30
46816;DHT22;32787;53.316;8.670;2023-02-28T08:04:00;4.90;72.90
46816;DHT22;32787;53.316;8.670;2023-02-28T08:06:25;4.30;74.90
46816;DHT22;32787;53.316;8.670;2023-02-28T08:08:52;4.20;75.90
46816;DHT22;32787;53.316;8.670;2023-02-28T08:11:18;3.90;76.80
46816;DHT22;32787;53.316;8.670;2023-02-28T08:13:45;3.70;76.60
46816;DHT22;32787;53.316;8.670;2023-02-28T08:16:12;3.80;76.60
46816;DHT22;32787;53.316;8.670;2023-02-28T08:18:43;4.00;75.80
46816;DHT22;32787;53.316;8.670;2023-02-28T08:21:09;4.20;75.40
46816;DHT22;32787;53.316;8.670;2023-02-28T08:23:35;4.90;75.70
46816;DHT22;32787;53.316;8.670;2023-02-28T08:26:01;5.70;69.80
46816;DHT22;32787;53.316;8.670;2023-02-28T08:28:27;5.90;68.70
46816;DHT22;32787;53.316;8.670;2023-02-28T08:30:53;6.40;68.10
46816;DHT22;32787;53.316;8.670;2023-02-28T08:33:19;6.90;65.60
46816;DHT22;32787;53.316;8.670;2023-02-28T08:35:45;7.00;64.80
46816;DHT22;32787;53.316;8.670;2023-02-28T08:38:10;7.10;64.40
46816;DHT22;32787;53.316;8.670;2023-02-28T08:40:36;7.40;63.20
46816;DHT22;32787;53.316;8.670;2023-02-28T08:43:02;7.60;63.50
46816;DHT22;32787;53.316;8.670;2023-02-28T08:45:27;7.90;60.70
46816;DHT22;32787;53.316;8.670;2023-02-28T08:47:54;7.40;60.10
46816;DHT22;32787;53.316;8.670;2023-02-28T08:50:21;6.90;61.70
46816;DHT22;32787;53.316;8.670;2023-02-28T08:52:46;6.20;63.30
46816;DHT22;32787;53.316;8.670;2023-02-28T08:55:12;5.80;64.50
46816;DHT22;32787;53.316;8.670;2023-02-28T08:57:37;5.40;65.10
46816;DHT22;32787;53.316;8.670;2023-02-28T09:00:04;5.10;66.80
46816;DHT22;32787;53.316;8.670;2023-02-28T09:02:33;5.10;67.20
46816;DHT22;32787;53.316;8.670;2023-02-28T09:04:58;4.90;67.60
46816;DHT22;32787;53.316;8.670;2023-02-28T09:07:24;5.10;67.70
46816;DHT22;32787;53.316;8.670;2023-02-28T09:09:50;5.40;66.60
46816;DHT22;32787;53.316;8.670;2023-02-28T09:12:27;5.40;65.30
46816;DHT22;32787;53.316;8.670;2023-02-28T09:14:57;5.50;66.40
46816;DHT22;32787;53.316;8.670;2023-02-28T09:17:22;5.50;67.00
46816;DHT22;32787;53.316;8.670;2023-02-28T09:19:48;5.60;66.00
46816;DHT22;32787;53.316;8.670;2023-02-28T09:22:14;5.80;65.40
46816;DHT22;32787;53.316;8.670;2023-02-28T09:24:40;5.90;64.70
46816;DHT22;32787;53.316;8.670;2023-02-28T09:27:06;6.00;64.50
46816;DHT22;32787;53.316;8.670;2023-02-28T09:29:33;6.00;63.20
46816;DHT22;32787;53.316;8.670;2023-02-28T09:31:59;5.90;63.70
46816;DHT22;32787;53.316;8.670;2023-02-28T09:34:26;5.90;62.10
46816;DHT22;32787;53.316;8.670;2023-02-28T09:36:51;5.80;62.80
46816;DHT22;32787;53.316;8.670;2023-02-28T09:39:21;5.70;64.40
46816;DHT22;32787;53.316;8.670;2023-02-28T09:41:50;5.60;64.70
46816;DHT22;32787;53.316;8.670;2023-02-28T09:44:23;5.40;64.70
46816;DHT22;32787;53.316;8.670;2023-02-28T09:47:01;5.40;66.10
46816;DHT22;32787;53.316;8.670;2023-02-28T09:49:37;5.40;64.90
46816;DHT22;32787;53.316;8.670;2023-02-28T09:52:09;5.70;63.40
46816;DHT22;32787;53.316;8.670;2023-02-28T09:54:35;5.80;61.50
46816;DHT22;32787;53.316;8.670;2023-02-28T09:57:08;6.00;60.90
46816;DHT22;32787;53.316;8.670;2023-02-28T10:04:59;5.10;66.20
46816;DHT22;32787;53.316;8.670;2023-02-28T10:07:49;5.20;64.90
46816;DHT22;32787;53.316;8.670;2023-02-28T10:10:22;5.10;65.30
46816;DHT22;32787;53.316;8.670;2023-02-28T10:12:53;5.20;64.00
46816;DHT22;32787;53.316;8.670;2023-02-28T10:15:19;5.10;64.80
46816;DHT22;32787;53.316;8.670;2023-02-28T10:17:54;5.40;64.70
46816;DHT22;32787;53.316;8.670;2023-02-28T10:20:22;5.40;64.20
46816;DHT22;32787;53.316;8.670;2023-02-28T10:22:59;5.50;63.50
46816;DHT22;32787;53.316;8.670;2023-02-28T10:25:33;5.60;62.50
46816;DHT22;32787;53.316;8.670;2023-02-28T10:28:09;5.60;63.40
46816;DHT22;32787;53.316;8.670;2023-02-28T10:30:37;5.80;62.70
46816;DHT22;32787;53.316;8.670;2023-02-28T10:33:03;5.90;62.60
46816;DHT22;32787;53.316;8.670;2023-02-28T10:35:29;6.00;61.90
46816;DHT22;32787;53.316;8.670;2023-02-28T10:37:59;5.90;60.80
46816;DHT22;32787;53.316;8.670;2023-02-28T10:40:31;5.80;62.90
46816;DHT22;32787;53.316;8.670;2023-02-28T10:43:18;5.80;62.60
46816;DHT22;32787;53.316;8.670;2023-02-28T10:51:04;6.10;60.50
46816;DHT22;32787;53.316;8.670;2023-02-28T10:56:16;6.30;58.40
46816;DHT22;32787;53.316;8.670;2023-02-28T11:01:36;6.20;59.50
46816;DHT22;32787;53.316;8.670;2023-02-28T11:04:16;6.30;59.80
46816;DHT22;32787;53.316;8.670;2023-02-28T11:06:42;6.20;59.30
46816;DHT22;32787;53.316;8.670;2023-02-28T11:09:22;6.10;59.60
46816;DHT22;32787;53.316;8.670;2023-02-28T11:11:49;6.20;60.40
46816;DHT22;32787;53.316;8.670;2023-02-28T11:14:24;6.10;60.30
46816;DHT22;32787;53.316;8.670;2023-02-28T11:16:51;6.10;60.20
46816;DHT22;32787;53.316;8.670;2023-02-28T11:19:24;6.10;60.10
46816;DHT22;32787;53.316;8.670;2023-02-28T11:21:59;6.00;59.70
46816;DHT22;32787;53.316;8.670;2023-02-28T11:24:42;5.90;59.20
46816;DHT22;32787;53.316;8.670;2023-02-28T11:29:57;5.90;59.90
46816;DHT22;32787;53.316;8.670;2023-02-28T11:32:26;5.90;59.10
46816;DHT22;32787;53.316;8.670;2023-02-28T11:37:35;6.10;58.70
46816;DHT22;32787;53.316;8.670;2023-02-28T11:40:01;5.90;58.10
46816;DHT22;32787;53.316;8.670;2023-02-28T11:45:31;6.10;58.70
46816;DHT22;32787;53.316;8.670;2023-02-28T11:48:26;6.10;58.10
46816;DHT22;32787;53.316;8.670;2023-02-28T11:51:21;6.30;59.10
46816;DHT22;32787;53.316;8.670;2023-02-28T11:54:01;6.50;60.00
46816;DHT22;32787;53.316;8.670;2023-02-28T11:56:37;6.30;57.90
46816;DHT22;32787;53.316;8.670;2023-02-28T12:05:04;6.30;56.20
46816;DHT22;32787;53.316;8.670;2023-02-28T12:10:26;6.20;54.70
46816;DHT22;32787;53.316;8.670;2023-02-28T12:13:21;6.40;54.70
46816;DHT22;32787;53.316;8.670;2023-02-28T12:20:53;6.60;55.50
46816;DHT22;32787;53.316;8.670;2023-02-28T12:28:44;6.70;56.50
46816;DHT22;32787;53.316;8.670;2023-02-28T12:31:22;6.60;54.90
46816;DHT22;32787;53.316;8.670;2023-02-28T12:33:56;6.60;55.80
46816;DHT22;32787;53.316;8.670;2023-02-28T12:36:22;6.50;55.20
46816;DHT22;32787;53.316;8.670;2023-02-28T12:39:05;6.60;54.60
46816;DHT22;32787;53.316;8.670;2023-02-28T12:47:00;6.40;55.20
46816;DHT22;32787;53.316;8.670;2023-02-28T12:49:34;6.50;53.20
46816;DHT22;32787;53.316;8.670;2023-02-28T12:52:03;6.30;55.90
46816;DHT22;32787;53.316;8.670;2023-02-28T12:54:59;6.40;55.60
46816;DHT22;32787;53.316;8.670;2023-02-28T12:57:48;6.50;53.50
46816;DHT22;32787;53.316;8.670;2023-02-28T13:00:21;6.60;54.90
46816;DHT22;32787;53.316;8.670;2023-02-28T13:08:47;6.80;55.90
46816;DHT22;32787;53.316;8.670;2023-02-28T13:11:58;6.70;53.30
46816;DHT22;32787;53.316;8.670;2023-02-28T13:19:31;6.80;52.30
46816;DHT22;32787;53.316;8.670;2023-02-28T13:21:58;6.90;52.80
46816;DHT22;32787;53.316;8.670;2023-02-28T13:24:38;6.70;51.70
46816;DHT22;32787;53.316;8.670;2023-02-28T13:29:42;6.70;51.90
46816;DHT22;32787;53.316;8.670;2023-02-28T13:34:46;6.70;52.90
46816;DHT22;32787;53.316;8.670;2023-02-28T13:40:06;6.60;51.60
46816;DHT22;32787;53.316;8.670;2023-02-28T13:42:47;6.60;52.00
46816;DHT22;32787;53.316;8.670;2023-02-28T13:45:26;6.60;52.10
46816;DHT22;32787;53.316;8.670;2023-02-28T13:48:03;6.60;52.60
46816;DHT22;32787;53.316;8.670;2023-02-28T13:50:37;6.80;51.00
46816;DHT22;32787;53.316;8.670;2023-02-28T13:56:18;6.50;51.00
46816;DHT22;32787;53.316;8.670;2023-02-28T13:59:02;6.90;51.60
46816;DHT22;32787;53.316;8.670;2023-02-28T14:05:05;6.80;51.20
46816;DHT22;32787;53.316;8.670;2023-02-28T14:07:38;6.70;52.60
46816;DHT22;32787;53.316;8.670;2023-02-28T14:10:07;6.80;51.00
46816;DHT22;32787;53.316;8.670;2023-02-28T14:18:31;6.90;50.80
46816;DHT22;32787;53.316;8.670;2023-02-28T14:21:17;6.90;50.00
46816;DHT22;32787;53.316;8.670;2023-02-28T14:35:55;6.70;49.50
46816;DHT22;32787;53.316;8.670;2023-02-28T14:38:38;6.70;51.80
46816;DHT22;32787;53.316;8.670;2023-02-28T14:41:17;6.80;51.90
46816;DHT22;32787;53.316;8.670;2023-02-28T14:43:56;6.80;51.40
46816;DHT22;32787;53.316;8.670;2023-02-28T14:46:26;6.80;50.90
46816;DHT22;32787;53.316;8.670;2023-02-28T14:48:52;6.70;51.10
46816;DHT22;32787;53.316;8.670;2023-02-28T14:51:21;6.50;50.30
46816;DHT22;32787;53.316;8.670;2023-02-28T14:53:50;6.50;51.20
46816;DHT22;32787;53.316;8.670;2023-02-28T14:56:22;6.60;51.10
46816;DHT22;32787;53.316;8.670;2023-02-28T14:58:53;6.70;51.20
46816;DHT22;32787;53.316;8.670;2023-02-28T15:01:21;6.80;50.50
46816;DHT22;32787;53.316;8.670;2023-02-28T15:03:48;6.80;51.30
46816;DHT22;32787;53.316;8.670;2023-02-28T15:06:22;6.60;50.90
46816;DHT22;32787;53.316;8.670;2023-02-28T15:09:16;6.60;51.20
46816;DHT22;32787;53.316;8.670;2023-02-28T15:11:46;6.60;51.10
46816;DHT22;32787;53.316;8.670;2023-02-28T15:14:21;6.60;49.70
46816;DHT22;32787;53.316;8.670;2023-02-28T15:17:00;6.60;49.60
46816;DHT22;32787;53.316;8.670;2023-02-28T15:19:35;6.50;50.00
46816;DHT22;32787;53.316;8.670;2023-02-28T15:22:06;6.60;51.50
46816;DHT22;32787;53.316;8.670;2023-02-28T15:24:38;6.40;51.00
46816;DHT22;32787;53.316;8.670;2023-02-28T15:27:12;6.50;49.80
46816;DHT22;32787;53.316;8.670;2023-02-28T15:29:48;6.30;51.50
46816;DHT22;32787;53.316;8.670;2023-02-28T15:34:54;6.40;52.20
46816;DHT22;32787;53.316;8.670;2023-02-28T15:40:05;6.40;53.10
46816;DHT22;32787;53.316;8.670;2023-02-28T15:42:33;6.30;52.20
46816;DHT22;32787;53.316;8.670;2023-02-28T15:44:58;6.30;53.50
46816;DHT22;32787;53.316;8.670;2023-02-28T15:47:27;6.20;54.30
46816;DHT22;32787;53.316;8.670;2023-02-28T15:49:58;6.10;54.70
46816;DHT22;32787;53.316;8.670;2023-02-28T15:54:54;6.30;55.90
46816;DHT22;32787;53.316;8.670;2023-02-28T15:57:25;6.20;55.10
46816;DHT22;32787;53.316;8.670;2023-02-28T16:00:00;6.10;56.20
46816;DHT22;32787;53.316;8.670;2023-02-28T16:02:36;5.90;58.20
46816;DHT22;32787;53.316;8.670;2023-02-28T16:07:35;5.60;57.90
46816;DHT22;32787;53.316;8.670;2023-02-28T16:10:01;5.80;56.50
46816;DHT22;32787;53.316;8.670;2023-02-28T16:12:29;5.80;56.10
46816;DHT22;32787;53.316;8.670;2023-02-28T16:14:57;5.80;56.00
46816;DHT22;32787;53.316;8.670;2023-02-28T16:17:33;5.80;56.90
46816;DHT22;32787;53.316;8.670;2023-02-28T16:19:59;5.60;57.90
46816;DHT22;32787;53.316;8.670;2023-02-28T16:22:25;5.40;58.70
46816;DHT22;32787;53.316;8.670;2023-02-28T16:24:52;5.30;60.30
46816;DHT22;32787;53.316;8.670;2023-02-28T16:27:29;5.60;59.30
46816;DHT22;32787;53.316;8.670;2023-02-28T16:29:55;5.40;62.10
46816;DHT22;32787;53.316;8.670;2023-02-28T16:32:21;5.10;63.00
46816;DHT22;32787;53.316;8.670;2023-02-28T16:34:47;4.90;64.60
46816;DHT22;32787;53.316;8.670;2023-02-28T16:37:15;4.90;64.30
46816;DHT22;32787;53.316;8.670;2023-02-28T16:39:42;4.60;64.60
46816;DHT22;32787;53.316;8.670;2023-02-28T16:42:26;4.40;65.10
46816;DHT22;32787;53.316;8.670;2023-02-28T16:44:53;4.30;66.20
46816;DHT22;32787;53.316;8.670;2023-02-28T16:47:19;4.00;66.70
46816;DHT22;32787;53.316;8.670;2023-02-28T16:49:44;3.90;68.10
46816;DHT22;32787;53.316;8.670;2023-02-28T16:52:10;3.80;68.40
46816;DHT22;32787;53.316;8.670;2023-02-28T16:54:38;3.60;69.00
46816;DHT22;32787;53.316;8.670;2023-02-28T16:57:04;3.50;69.40
46816;DHT22;32787;53.316;8.670;2023-02-28T16:59:30;3.20;69.90
46816;DHT22;32787;53.316;8.670;2023-02-28T17:01:56;3.10;71.30
46816;DHT22;32787;53.316;8.670;2023-02-28T17:04:24;2.90;71.60
46816;DHT22;32787;53.316;8.670;2023-02-28T17:06:49;2.70;72.50
46816;DHT22;32787;53.316;8.670;2023-02-28T17:09:21;2.60;72.50
46816;DHT22;32787;53.316;8.670;2023-02-28T17:11:47;2.50;73.10
46816;DHT22;32787;53.316;8.670;2023-02-28T17:14:14;2.40;73.30
46816;DHT22;32787;53.316;8.670;2023-02-28T17:16:40;2.30;74.00
46816;DHT22;32787;53.316;8.670;2023-02-28T17:19:11;2.20;74.40
46816;DHT22;32787;53.316;8.670;2023-02-28T17:21:37;2.10;74.50
46816;DHT22;32787;53.316;8.670;2023-02-28T17:24:04;1.90;75.50
46816;DHT22;32787;53.316;8.670;2023-02-28T17:26:30;1.90;75.70
46816;DHT22;32787;53.316;8.670;2023-02-28T17:28:57;1.90;76.50
46816;DHT22;32787;53.316;8.670;2023-02-28T17:31:24;1.90;76.20
46816;DHT22;32787;53.316;8.670;2023-02-28T17:33:50;1.90;76.30
46816;DHT22;32787;53.316;8.670;2023-02-28T17:36:21;1.90;77.60
46816;DHT22;32787;53.316;8.670;2023-02-28T17:38:48;1.70;78.60
46816;DHT22;32787;53.316;8.670;2023-02-28T17:41:13;1.40;79.80
46816;DHT22;32787;53.316;8.670;2023-02-28T17:43:39;1.40;80.20
46816;DHT22;32787;53.316;8.670;2023-02-28T17:46:05;1.20;80.50
46816;DHT22;32787;53.316;8.670;2023-02-28T17:48:33;1.10;80.70
46816;DHT22;32787;53.316;8.670;2023-02-28T17:50:59;1.00;80.70
46816;DHT22;32787;53.316;8.670;2023-02-28T17:53:24;0.90;80.90
46816;DHT22;32787;53.316;8.670;2023-02-28T17:55:52;0.90;81.00
46816;DHT22;32787;53.316;8.670;2023-02-28T17:58:18;0.90;80.80
46816;DHT22;32787;53.316;8.670;2023-02-28T18:00:44;0.80;80.70
46816;DHT22;32787;53.316;8.670;2023-02-28T18:03:10;1.00;80.20
46816;DHT22;32787;53.316;8.670;2023-02-28T18:05:36;0.90;80.40
46816;DHT22;32787;53.316;8.670;2023-02-28T18:08:02;0.70;81.10
46816;DHT22;32787;53.316;8.670;2023-02-28T18:10:28;0.60;81.60
46816;DHT22;32787;53.316;8.670;2023-02-28T18:12:53;0.60;82.00
46816;DHT22;32787;53.316;8.670;2023-02-28T18:15:20;0.60;81.80
46816;DHT22;32787;53.316;8.670;2023-02-28T18:17:47;0.50;81.20
46816;DHT22;32787;53.316;8.670;2023-02-28T18:20:13;0.30;81.70